createdAt,value
2022-08-19T00:00:35.942Z,42.54
2022-08-19T00:01:38.015Z,48.98
2022-08-19T00:02:35.913Z,54.30
2022-08-19T00:03:36.024Z,58.33
2022-08-19T00:04:36.654Z,60.75
2022-08-19T00:05:36.774Z,51.56
2022-08-19T00:06:36.808Z,52.37
2022-08-19T00:07:37.987Z,53.33
2022-08-19T00:08:35.899Z,51.88
2022-08-19T00:09:43.778Z,52.53
2022-08-19T00:10:39.778Z,48.66
2022-08-19T00:11:37.171Z,48.02
2022-08-19T00:12:35.961Z,47.21
2022-08-19T00:13:37.117Z,47.37
2022-08-19T00:14:35.772Z,47.05
2022-08-19T00:15:37.772Z,44.15
2022-08-19T00:16:35.802Z,47.05
2022-08-19T00:17:35.729Z,44.47
2022-08-19T00:18:36.711Z,45.76
2022-08-19T00:19:35.706Z,48.02
2022-08-19T00:20:35.684Z,49.31
2022-08-19T00:21:35.676Z,52.53
2022-08-19T00:22:36.935Z,57.20
2022-08-19T00:23:35.652Z,54.95
2022-08-19T00:24:37.095Z,57.04
2022-08-19T00:25:35.627Z,58.97
2022-08-19T00:26:35.606Z,59.30
2022-08-19T00:27:35.626Z,62.52
2022-08-19T00:28:35.599Z,68.00
2022-08-19T00:29:35.584Z,61.87
2022-08-19T00:30:35.548Z,64.61
2022-08-19T00:31:35.547Z,63.00
2022-08-19T00:32:35.535Z,60.42
2022-08-19T00:33:35.966Z,62.52
2022-08-19T00:34:35.519Z,63.00
2022-08-19T00:35:35.779Z,64.13
2022-08-19T00:36:35.469Z,59.78
2022-08-19T00:37:35.460Z,58.01
2022-08-19T00:38:37.279Z,54.79
2022-08-19T00:39:35.503Z,54.79
2022-08-19T00:40:35.421Z,54.95
2022-08-19T00:41:35.717Z,55.91
2022-08-19T00:42:35.402Z,55.75
2022-08-19T00:43:35.398Z,63.97
2022-08-19T00:44:35.382Z,57.52
2022-08-19T00:45:36.649Z,58.01
2022-08-19T00:46:36.300Z,60.26
2022-08-19T00:47:36.282Z,61.55
2022-08-19T00:48:35.314Z,64.45
2022-08-19T00:49:35.315Z,65.42
2022-08-19T00:50:35.290Z,64.13
2022-08-19T00:51:36.157Z,62.52
2022-08-19T00:52:36.216Z,63.16
2022-08-19T00:53:35.268Z,62.04
2022-08-19T00:54:35.255Z,59.78
2022-08-19T00:55:36.083Z,58.81
2022-08-19T00:56:35.209Z,59.94
2022-08-19T00:57:35.199Z,58.97
2022-08-19T00:58:35.188Z,57.36
2022-08-19T01:00:00.499Z,59.14
2022-08-19T01:00:36.169Z,62.20
2022-08-19T01:01:35.186Z,61.07
2022-08-19T01:02:35.144Z,64.61
2022-08-19T01:03:56.584Z,59.30
2022-08-19T01:04:36.351Z,60.59
2022-08-19T01:05:35.107Z,65.10
2022-08-19T01:06:35.101Z,79.28
2022-08-19T01:07:35.915Z,61.39
2022-08-19T01:08:35.073Z,63.00
2022-08-19T01:09:35.065Z,59.30
2022-08-19T01:10:36.906Z,57.85
2022-08-19T01:11:35.012Z,56.07
2022-08-19T01:12:35.013Z,54.46
2022-08-19T01:13:44.574Z,53.17
2022-08-19T01:14:35.974Z,52.69
2022-08-19T01:15:34.975Z,52.05
2022-08-19T01:16:34.949Z,52.85
2022-08-19T01:17:34.935Z,53.50
2022-08-19T01:18:34.936Z,51.88
2022-08-19T01:19:44.334Z,52.69
2022-08-19T01:20:35.906Z,50.11
2022-08-19T01:21:34.886Z,48.82
2022-08-19T01:22:34.876Z,48.82
2022-08-19T01:23:34.873Z,50.27
2022-08-19T01:24:34.854Z,47.70
2022-08-19T01:25:36.132Z,47.70
2022-08-19T01:26:34.828Z,45.12
2022-08-19T01:27:43.005Z,45.76
2022-08-19T01:28:40.273Z,46.08
2022-08-19T01:29:36.035Z,44.47
2022-08-19T01:30:34.775Z,43.51
2022-08-19T01:31:34.774Z,42.70
2022-08-19T01:32:34.740Z,42.86
2022-08-19T01:33:34.755Z,43.83
2022-08-19T01:34:34.722Z,43.02
2022-08-19T01:35:34.711Z,44.63
2022-08-19T01:36:34.944Z,43.83
2022-08-19T01:37:34.684Z,45.28
2022-08-19T01:38:34.672Z,45.28
2022-08-19T01:39:35.677Z,44.96
2022-08-19T01:40:34.633Z,45.92
2022-08-19T01:41:34.634Z,45.12
2022-08-19T01:42:35.561Z,45.12
2022-08-19T01:43:34.613Z,44.63
2022-08-19T01:44:34.584Z,46.08
2022-08-19T01:45:34.575Z,52.85
2022-08-19T01:46:34.561Z,48.34
2022-08-19T01:47:34.541Z,49.31
2022-08-19T01:48:34.534Z,43.51
2022-08-19T01:49:34.514Z,48.34
2022-08-19T01:50:34.514Z,47.05
2022-08-19T01:51:39.914Z,46.57
2022-08-19T01:52:35.538Z,47.21
2022-08-19T01:53:34.505Z,46.25
2022-08-19T01:54:34.456Z,48.98
2022-08-19T01:55:34.450Z,44.31
2022-08-19T01:56:35.387Z,44.31
2022-08-19T01:57:35.358Z,42.70
2022-08-19T01:58:34.687Z,42.70
2022-08-19T01:59:34.378Z,42.70
2022-08-19T02:00:35.408Z,43.34
2022-08-19T02:01:35.396Z,44.31
2022-08-19T02:02:34.353Z,46.73
2022-08-19T02:03:34.339Z,45.12
2022-08-19T02:04:34.327Z,42.06
2022-08-19T02:05:34.310Z,41.89
2022-08-19T02:06:34.302Z,41.89
2022-08-19T02:07:34.291Z,42.38
2022-08-19T02:08:34.291Z,41.73
2022-08-19T02:09:34.514Z,43.02
2022-08-19T02:10:34.242Z,42.06
2022-08-19T02:11:34.239Z,42.38
2022-08-19T02:12:34.314Z,41.73
2022-08-19T02:13:34.214Z,43.02
2022-08-19T02:14:34.203Z,42.86
2022-08-19T02:15:34.184Z,41.41
2022-08-19T02:16:34.221Z,41.89
2022-08-19T02:17:34.196Z,41.41
2022-08-19T02:18:34.156Z,41.41
2022-08-19T02:19:34.365Z,41.41
2022-08-19T02:20:34.116Z,42.06
2022-08-19T02:21:34.105Z,42.38
2022-08-19T02:22:34.556Z,42.38
2022-08-19T02:23:34.089Z,43.83
2022-08-19T02:24:34.056Z,43.02
2022-08-19T02:25:34.127Z,41.25
2022-08-19T02:26:34.038Z,41.41
2022-08-19T02:27:34.868Z,41.41
2022-08-19T02:28:34.018Z,42.06
2022-08-19T02:29:33.989Z,43.02
2022-08-19T02:30:33.995Z,41.57
2022-08-19T02:31:33.971Z,43.18
2022-08-19T02:32:33.950Z,45.76
2022-08-19T02:33:34.953Z,41.89
2022-08-19T02:34:34.577Z,43.99
2022-08-19T02:35:34.161Z,43.34
2022-08-19T02:36:33.933Z,42.54
2022-08-19T02:37:35.095Z,43.99
2022-08-19T02:38:33.889Z,43.18
2022-08-19T02:39:33.896Z,43.51
2022-08-19T02:40:33.863Z,42.86
2022-08-19T02:41:33.838Z,42.54
2022-08-19T02:42:33.834Z,45.12
2022-08-19T02:43:34.691Z,42.22
2022-08-19T02:44:33.810Z,43.34
2022-08-19T02:45:34.025Z,42.70
2022-08-19T02:46:33.784Z,42.54
2022-08-19T02:47:33.757Z,43.51
2022-08-19T02:48:33.813Z,42.22
2022-08-19T02:49:34.784Z,41.73
2022-08-19T02:50:33.726Z,42.70
2022-08-19T02:51:33.707Z,43.02
2022-08-19T02:52:33.705Z,47.86
2022-08-19T02:53:33.697Z,42.22
2022-08-19T02:54:33.668Z,41.09
2022-08-19T02:55:33.657Z,42.22
2022-08-19T02:56:34.648Z,41.41
2022-08-19T02:57:33.631Z,41.57
2022-08-19T02:58:33.627Z,42.70
2022-08-19T02:59:33.599Z,41.57
2022-08-19T03:00:33.594Z,41.25
2022-08-19T03:01:33.693Z,40.93
2022-08-19T03:02:33.831Z,41.09
2022-08-19T03:03:33.561Z,41.09
2022-08-19T03:04:33.542Z,40.77
2022-08-19T03:05:48.470Z,41.09
2022-08-19T03:06:34.513Z,41.25
2022-08-19T03:07:34.443Z,41.41
2022-08-19T03:08:33.510Z,40.93
2022-08-19T03:09:35.266Z,41.57
2022-08-19T03:10:34.424Z,40.61
2022-08-19T03:11:33.446Z,41.73
2022-08-19T03:12:34.385Z,40.77
2022-08-19T03:13:33.424Z,40.93
2022-08-19T03:14:33.415Z,40.61
2022-08-19T03:15:33.396Z,41.89
2022-08-19T03:16:33.846Z,41.41
2022-08-19T03:17:33.367Z,41.25
2022-08-19T03:18:33.394Z,41.25
2022-08-19T03:19:33.346Z,45.12
2022-08-19T03:20:33.338Z,41.73
2022-08-19T03:21:33.317Z,40.93
2022-08-19T03:22:33.310Z,40.93
2022-08-19T03:23:33.298Z,40.61
2022-08-19T03:24:33.279Z,40.93
2022-08-19T03:25:33.319Z,41.09
2022-08-19T03:26:33.261Z,41.09
2022-08-19T03:27:34.717Z,40.28
2022-08-19T03:28:33.241Z,41.09
2022-08-19T03:29:33.210Z,40.93
2022-08-19T03:30:34.209Z,46.89
2022-08-19T03:31:44.389Z,40.44
2022-08-19T03:32:34.182Z,42.22
2022-08-19T03:33:33.169Z,41.57
2022-08-19T03:34:33.161Z,40.93
2022-08-19T03:35:33.128Z,42.22
2022-08-19T03:36:33.153Z,41.41
2022-08-19T03:37:33.363Z,41.41
2022-08-19T03:38:34.071Z,40.77
2022-08-19T03:39:33.123Z,41.25
2022-08-19T03:40:33.086Z,40.44
2022-08-19T03:41:45.151Z,41.89
2022-08-19T03:42:48.708Z,41.73
2022-08-19T03:43:34.030Z,40.44
2022-08-19T03:44:33.026Z,42.54
2022-08-19T03:45:33.006Z,41.41
2022-08-19T03:46:32.992Z,45.12
2022-08-19T03:47:32.987Z,41.41
2022-08-19T03:48:32.981Z,41.41
2022-08-19T03:49:32.960Z,40.44
2022-08-19T03:50:32.938Z,42.86
2022-08-19T03:51:32.938Z,41.41
2022-08-19T03:52:32.922Z,40.93
2022-08-19T03:53:32.932Z,47.05
2022-08-19T03:54:32.891Z,41.09
2022-08-19T03:55:32.881Z,40.93
2022-08-19T03:56:32.860Z,41.41
2022-08-19T03:57:32.867Z,40.77
2022-08-19T03:58:32.848Z,42.86
2022-08-19T03:59:32.826Z,41.73
2022-08-19T04:00:32.812Z,50.92
2022-08-19T04:01:35.218Z,41.25
2022-08-19T04:02:32.794Z,41.41
2022-08-19T04:03:32.769Z,43.34
2022-08-19T04:04:32.759Z,41.09
2022-08-19T04:05:32.749Z,40.93
2022-08-19T04:06:32.732Z,41.73
2022-08-19T04:07:32.761Z,45.44
2022-08-19T04:08:32.705Z,44.96
2022-08-19T04:09:32.692Z,43.51
2022-08-19T04:10:32.675Z,41.89
2022-08-19T04:11:43.592Z,43.67
2022-08-19T04:12:33.658Z,40.77
2022-08-19T04:13:32.637Z,41.09
2022-08-19T04:14:32.626Z,41.41
2022-08-19T04:15:32.618Z,42.22
2022-08-19T04:16:35.139Z,41.57
2022-08-19T04:17:32.628Z,52.21
2022-08-19T04:18:36.387Z,42.70
2022-08-19T04:19:32.569Z,42.54
2022-08-19T04:20:32.549Z,41.41
2022-08-19T04:21:32.541Z,43.51
2022-08-19T04:22:32.532Z,45.92
2022-08-19T04:23:32.531Z,41.73
2022-08-19T04:24:32.491Z,41.41
2022-08-19T04:25:32.491Z,41.57
2022-08-19T04:26:32.472Z,41.57
2022-08-19T04:27:32.471Z,45.76
2022-08-19T04:28:32.442Z,43.02
2022-08-19T04:29:32.432Z,43.34
2022-08-19T04:30:32.413Z,41.73
2022-08-19T04:31:32.404Z,43.51
2022-08-19T04:32:32.393Z,40.44
2022-08-19T04:33:32.384Z,41.41
2022-08-19T04:34:32.365Z,41.57
2022-08-19T04:35:32.355Z,44.96
2022-08-19T04:36:32.335Z,42.06
2022-08-19T04:37:35.302Z,41.89
2022-08-19T04:38:32.319Z,42.06
2022-08-19T04:39:32.324Z,47.53
2022-08-19T04:40:32.287Z,42.22
2022-08-19T04:41:32.286Z,43.51
2022-08-19T04:42:32.266Z,44.63
2022-08-19T04:43:32.248Z,42.54
2022-08-19T04:44:33.282Z,41.25
2022-08-19T04:45:36.257Z,41.09
2022-08-19T04:46:40.565Z,41.09
2022-08-19T04:47:47.039Z,42.06
2022-08-19T04:48:33.209Z,41.73
2022-08-19T04:49:32.170Z,45.92
2022-08-19T04:50:32.162Z,41.73
2022-08-19T04:51:32.161Z,40.93
2022-08-19T04:52:32.141Z,41.57
2022-08-19T04:53:37.618Z,41.89
2022-08-19T04:54:37.267Z,45.76
2022-08-19T04:55:37.873Z,53.50
2022-08-19T04:56:33.073Z,48.18
2022-08-19T04:57:32.082Z,41.57
2022-08-19T04:58:32.053Z,44.31
2022-08-19T04:59:32.043Z,41.73
2022-08-19T05:00:32.024Z,42.22
2022-08-19T05:01:32.064Z,42.38
2022-08-19T05:02:32.004Z,42.06
2022-08-19T05:03:32.003Z,41.57
2022-08-19T05:04:33.249Z,41.89
2022-08-19T05:05:31.985Z,43.99
2022-08-19T05:06:32.947Z,44.96
2022-08-19T05:07:31.966Z,42.54
2022-08-19T05:08:31.931Z,43.18
2022-08-19T05:09:42.124Z,41.41
2022-08-19T05:10:32.898Z,42.54
2022-08-19T05:11:31.886Z,42.38
2022-08-19T05:12:31.872Z,41.41
2022-08-19T05:13:31.863Z,41.73
2022-08-19T05:14:31.858Z,43.02
2022-08-19T05:15:31.855Z,42.06
2022-08-19T05:16:31.817Z,42.06
2022-08-19T05:17:36.223Z,41.41
2022-08-19T05:18:32.797Z,42.06
2022-08-19T05:19:31.781Z,41.73
2022-08-19T05:20:31.771Z,42.22
2022-08-19T05:21:31.752Z,42.70
2022-08-19T05:22:31.752Z,44.96
2022-08-19T05:23:31.735Z,43.02
2022-08-19T05:24:31.727Z,45.92
2022-08-19T05:25:31.725Z,42.22
2022-08-19T05:26:32.643Z,42.22
2022-08-19T05:27:31.694Z,46.73
2022-08-19T05:28:31.680Z,43.18
2022-08-19T05:29:35.540Z,47.37
2022-08-19T05:30:46.568Z,41.73
2022-08-19T05:31:33.585Z,43.99
2022-08-19T05:32:31.626Z,43.18
2022-08-19T05:33:31.606Z,48.98
2022-08-19T05:34:31.585Z,43.18
2022-08-19T05:35:34.717Z,48.18
2022-08-19T05:36:31.559Z,44.15
2022-08-19T05:37:31.558Z,41.57
2022-08-19T05:38:31.541Z,43.02
2022-08-19T05:39:31.538Z,51.72
2022-08-19T05:40:32.487Z,42.54
2022-08-19T05:41:31.500Z,44.63
2022-08-19T05:42:31.503Z,42.70
2022-08-19T05:43:31.470Z,45.76
2022-08-19T05:44:31.450Z,43.51
2022-08-19T05:45:31.440Z,42.38
2022-08-19T05:46:31.421Z,42.06
2022-08-19T05:47:31.432Z,42.38
2022-08-19T05:48:31.419Z,45.76
2022-08-19T05:49:31.393Z,44.47
2022-08-19T05:50:31.380Z,42.38
2022-08-19T05:51:31.373Z,42.38
2022-08-19T05:52:31.363Z,52.53
2022-08-19T05:53:31.333Z,42.54
2022-08-19T05:54:32.264Z,43.99
2022-08-19T05:55:31.312Z,49.79
2022-08-19T05:56:31.298Z,50.11
2022-08-19T05:57:31.326Z,47.05
2022-08-19T05:58:31.276Z,42.86
2022-08-19T05:59:31.515Z,41.41
2022-08-19T06:00:31.247Z,41.09
2022-08-19T06:01:31.237Z,41.89
2022-08-19T06:02:31.279Z,43.02
2022-08-19T06:03:31.218Z,40.93
2022-08-19T06:04:31.201Z,41.41
2022-08-19T06:05:31.229Z,46.08
2022-08-19T06:06:31.196Z,42.06
2022-08-19T06:07:31.178Z,43.83
2022-08-19T06:08:34.652Z,42.54
2022-08-19T06:09:31.131Z,41.41
2022-08-19T06:10:31.110Z,41.41
2022-08-19T06:11:31.110Z,41.89
2022-08-19T06:12:31.081Z,46.57
2022-08-19T06:13:31.742Z,42.86
2022-08-19T06:14:31.074Z,42.86
2022-08-19T06:15:31.052Z,41.41
2022-08-19T06:16:31.042Z,42.22
2022-08-19T06:17:31.248Z,42.38
2022-08-19T06:18:31.004Z,40.93
2022-08-19T06:19:30.995Z,42.22
2022-08-19T06:20:54.538Z,42.54
2022-08-19T06:21:31.984Z,43.83
2022-08-19T06:22:30.954Z,43.51
2022-08-19T06:23:30.946Z,51.56
2022-08-19T06:24:30.925Z,43.34
2022-08-19T06:25:30.925Z,53.82
2022-08-19T06:26:30.930Z,44.31
2022-08-19T06:27:30.917Z,44.79
2022-08-19T06:28:30.885Z,54.95
2022-08-19T06:29:30.875Z,56.40
2022-08-19T06:30:30.870Z,57.36
2022-08-19T06:31:30.868Z,55.43
2022-08-19T06:32:30.829Z,58.81
2022-08-19T06:33:30.819Z,59.62
2022-08-19T06:34:30.808Z,53.33
2022-08-19T06:35:30.796Z,48.98
2022-08-19T06:36:30.780Z,45.60
2022-08-19T06:37:30.768Z,41.25
2022-08-19T06:38:30.751Z,42.06
2022-08-19T06:39:30.783Z,42.22
2022-08-19T06:40:31.724Z,41.89
2022-08-19T06:41:30.722Z,40.61
2022-08-19T06:42:30.694Z,44.31
2022-08-19T06:43:30.690Z,41.89
2022-08-19T06:44:31.844Z,41.57
2022-08-19T06:45:34.917Z,47.70
2022-08-19T06:46:31.661Z,40.61
2022-08-19T06:47:30.665Z,42.86
2022-08-19T06:48:30.622Z,43.18
2022-08-19T06:49:30.613Z,43.83
2022-08-19T06:50:30.639Z,45.92
2022-08-19T06:52:30.566Z,43.51
2022-08-19T06:53:30.556Z,44.31
2022-08-19T06:54:30.614Z,44.15
2022-08-19T06:55:30.556Z,45.12
2022-08-19T06:56:30.518Z,40.77
2022-08-19T06:57:30.503Z,44.47
2022-08-19T06:58:30.483Z,43.83
2022-08-19T06:59:30.475Z,40.77
2022-08-19T07:01:30.451Z,46.89
2022-08-19T07:02:30.476Z,44.79
2022-08-19T07:03:30.431Z,56.40
2022-08-19T07:04:30.718Z,46.73
2022-08-19T07:05:30.422Z,47.86
2022-08-19T07:06:44.178Z,49.79
2022-08-19T07:07:31.373Z,52.37
2022-08-19T07:08:30.421Z,49.63
2022-08-19T07:09:30.358Z,56.72
2022-08-19T07:10:30.343Z,49.47
2022-08-19T07:11:30.333Z,49.47
2022-08-19T07:12:30.657Z,48.34
2022-08-19T07:13:30.296Z,44.79
2022-08-19T07:14:30.281Z,45.76
2022-08-19T07:15:30.275Z,43.02
2022-08-19T07:16:30.255Z,52.37
2022-08-19T07:17:30.242Z,47.70
2022-08-19T07:18:30.234Z,43.51
2022-08-19T07:19:30.465Z,46.57
2022-08-19T07:20:30.376Z,48.82
2022-08-19T07:21:30.199Z,49.95
2022-08-19T07:22:30.187Z,50.27
2022-08-19T07:23:30.201Z,48.50
2022-08-19T07:24:33.557Z,45.28
2022-08-19T07:25:32.498Z,53.33
2022-08-19T07:26:30.129Z,51.72
2022-08-19T07:27:30.119Z,53.33
2022-08-19T07:28:30.102Z,43.02
2022-08-19T07:29:30.090Z,43.34
2022-08-19T07:30:30.081Z,43.02
2022-08-19T07:31:31.231Z,44.79
2022-08-19T07:32:30.041Z,41.89
2022-08-19T07:33:31.009Z,42.70
2022-08-19T07:34:30.063Z,42.54
2022-08-19T07:35:30.026Z,44.63
2022-08-19T07:36:29.992Z,43.02
2022-08-19T07:37:33.098Z,42.70
2022-08-19T07:38:30.001Z,43.02
2022-08-19T07:39:29.974Z,46.08
2022-08-19T07:40:29.956Z,44.31
2022-08-19T07:41:29.936Z,48.50
2022-08-19T07:42:29.925Z,46.08
2022-08-19T07:43:34.714Z,47.05
2022-08-19T07:44:30.950Z,43.99
2022-08-19T07:45:30.849Z,51.88
2022-08-19T07:46:29.867Z,49.95
2022-08-19T07:47:50.424Z,48.82
2022-08-19T07:48:30.837Z,47.86
2022-08-19T07:49:29.827Z,49.63
2022-08-19T07:50:29.827Z,45.92
2022-08-19T07:51:36.443Z,47.70
2022-08-19T07:52:30.787Z,46.57
2022-08-19T07:53:29.780Z,46.41
2022-08-19T07:54:29.769Z,46.73
2022-08-19T07:55:41.708Z,54.30
2022-08-19T07:56:30.745Z,53.82
2022-08-19T07:57:29.732Z,55.91
2022-08-19T07:58:29.714Z,53.50
2022-08-19T07:59:29.701Z,55.43
2022-08-19T08:00:29.711Z,56.07
2022-08-19T08:01:29.709Z,56.56
2022-08-19T08:02:29.667Z,54.79
2022-08-19T08:03:29.643Z,56.07
2022-08-19T08:04:29.660Z,58.81
2022-08-19T08:05:29.613Z,56.72
2022-08-19T08:06:29.612Z,55.75
2022-08-19T08:07:31.476Z,51.88
2022-08-19T08:08:29.584Z,68.00
2022-08-19T08:09:29.575Z,62.20
2022-08-19T08:10:29.565Z,69.13
2022-08-19T08:11:29.618Z,66.87
2022-08-19T08:12:36.731Z,69.45
2022-08-19T08:13:30.516Z,66.23
2022-08-19T08:14:35.288Z,65.90
2022-08-19T08:15:30.487Z,75.09
2022-08-19T08:16:29.497Z,63.65
2022-08-19T08:17:30.881Z,59.62
2022-08-19T08:18:31.250Z,65.90
2022-08-19T08:19:29.459Z,65.10
2022-08-19T08:20:29.429Z,67.19
2022-08-19T08:21:29.456Z,56.88
2022-08-19T08:22:29.401Z,71.22
2022-08-19T08:23:29.445Z,57.85
2022-08-19T08:24:30.348Z,53.98
2022-08-19T08:25:29.350Z,76.05
2022-08-19T08:26:29.345Z,60.10
2022-08-19T08:27:29.341Z,61.07
2022-08-19T08:28:30.000Z,58.17
2022-08-19T08:29:34.855Z,61.71
2022-08-19T08:30:31.326Z,52.85
2022-08-19T08:31:29.276Z,49.95
2022-08-19T08:32:29.272Z,56.88
2022-08-19T08:33:34.782Z,52.85
2022-08-19T08:34:30.255Z,77.02
2022-08-19T08:35:29.224Z,65.42
2022-08-19T08:36:29.225Z,60.59
2022-08-19T08:37:29.196Z,60.91
2022-08-19T08:38:30.197Z,49.79
2022-08-19T08:39:30.235Z,49.47
2022-08-19T08:40:29.156Z,59.94
2022-08-19T08:41:29.150Z,51.08
2022-08-19T08:42:29.137Z,49.63
2022-08-19T08:43:32.254Z,51.88
2022-08-19T08:44:29.118Z,48.98
2022-08-19T08:45:29.107Z,50.92
2022-08-19T08:46:30.735Z,58.01
2022-08-19T08:47:29.069Z,67.35
2022-08-19T08:48:29.059Z,52.53
2022-08-19T08:49:29.078Z,43.34
2022-08-19T08:50:29.030Z,50.60
2022-08-19T08:51:33.119Z,44.96
2022-08-19T08:52:32.009Z,66.71
2022-08-19T08:53:31.175Z,68.16
2022-08-19T08:54:29.946Z,60.10
2022-08-19T08:55:37.218Z,52.37
2022-08-19T08:57:28.952Z,65.58
2022-08-19T08:58:29.923Z,64.78
2022-08-19T08:59:29.864Z,78.47
2022-08-19T09:00:28.914Z,63.16
2022-08-19T09:01:30.783Z,63.16
2022-08-19T09:02:28.875Z,61.07
2022-08-19T09:03:31.653Z,60.26
2022-08-19T09:04:28.882Z,63.97
2022-08-19T09:05:28.825Z,59.46
2022-08-19T09:06:29.826Z,60.10
2022-08-19T09:07:35.807Z,63.49
2022-08-19T09:08:29.826Z,62.36
2022-08-19T09:09:28.985Z,60.59
2022-08-19T09:10:28.778Z,63.97
2022-08-19T09:11:42.748Z,63.65
2022-08-19T09:12:29.748Z,52.05
2022-08-19T09:13:28.738Z,60.10
2022-08-19T09:14:49.664Z,58.49
2022-08-19T09:15:33.746Z,56.40
2022-08-19T09:16:29.691Z,56.56
2022-08-19T09:17:28.680Z,53.17
2022-08-19T09:18:29.810Z,56.24
2022-08-19T09:19:29.490Z,57.04
2022-08-19T09:20:28.641Z,58.49
2022-08-19T09:21:30.536Z,57.36
2022-08-19T09:22:28.612Z,57.36
2022-08-19T09:23:28.603Z,54.62
2022-08-19T09:24:31.181Z,49.79
2022-08-19T09:25:29.567Z,58.49
2022-08-19T09:26:35.222Z,48.66
2022-08-19T09:27:42.296Z,50.27
2022-08-19T09:28:29.534Z,52.85
2022-08-19T09:29:28.538Z,53.50
2022-08-19T09:30:28.524Z,50.76
2022-08-19T09:31:28.503Z,50.76
2022-08-19T09:32:28.514Z,50.92
2022-08-19T09:33:28.491Z,53.01
2022-08-19T09:34:29.278Z,51.88
2022-08-19T09:35:28.525Z,55.59
2022-08-19T09:36:34.899Z,43.99
2022-08-19T09:37:29.417Z,52.69
2022-08-19T09:38:28.409Z,46.73
2022-08-19T09:39:35.946Z,54.30
2022-08-19T09:40:30.376Z,56.72
2022-08-19T09:41:28.677Z,48.98
2022-08-19T09:42:29.877Z,53.01
2022-08-19T09:43:33.688Z,46.89
2022-08-19T09:44:29.336Z,53.98
2022-08-19T09:45:28.329Z,45.92
2022-08-19T09:46:28.300Z,48.82
2022-08-19T09:47:28.291Z,47.05
2022-08-19T09:48:28.289Z,45.12
2022-08-19T09:49:28.272Z,46.89
2022-08-19T09:50:28.251Z,45.28
2022-08-19T09:51:28.232Z,45.12
2022-08-19T09:52:32.608Z,46.08
2022-08-19T09:53:28.213Z,48.98
2022-08-19T09:54:28.214Z,45.44
2022-08-19T09:55:31.887Z,48.98
2022-08-19T09:56:28.165Z,45.76
2022-08-19T09:57:29.120Z,45.44
2022-08-19T09:58:28.376Z,46.08
2022-08-19T09:59:28.137Z,46.41
2022-08-19T10:00:28.116Z,50.92
2022-08-19T10:01:28.370Z,51.88
2022-08-19T10:02:28.951Z,58.65
2022-08-19T10:03:30.275Z,58.01
2022-08-19T10:04:28.080Z,42.22
2022-08-19T10:05:28.059Z,43.51
2022-08-19T10:06:46.200Z,43.83
2022-08-19T10:07:36.098Z,47.86
2022-08-19T10:08:29.030Z,44.15
2022-08-19T10:09:34.441Z,43.83
2022-08-19T10:10:28.990Z,43.99
2022-08-19T10:11:36.543Z,44.47
2022-08-19T10:12:29.202Z,47.86
2022-08-19T10:13:27.952Z,47.86
2022-08-19T10:14:27.951Z,44.31
2022-08-19T10:15:29.105Z,44.96
2022-08-19T10:16:30.322Z,46.73
2022-08-19T10:17:31.624Z,46.73
2022-08-19T10:18:28.893Z,45.28
2022-08-19T10:19:27.883Z,46.25
2022-08-19T10:20:28.131Z,47.70
2022-08-19T10:21:27.855Z,53.33
2022-08-19T10:22:27.888Z,53.98
2022-08-19T10:23:28.121Z,52.53
2022-08-19T10:24:29.220Z,48.66
2022-08-19T10:25:27.809Z,47.86
2022-08-19T10:26:27.790Z,46.25
2022-08-19T10:27:27.776Z,45.28
2022-08-19T10:28:27.767Z,43.51
2022-08-19T10:29:32.256Z,44.47
2022-08-19T10:30:28.727Z,41.73
2022-08-19T10:32:01.033Z,49.79
2022-08-19T10:32:34.131Z,42.70
2022-08-19T10:33:38.420Z,45.28
2022-08-19T10:34:28.722Z,48.34
2022-08-19T10:35:27.658Z,41.89
2022-08-19T10:36:27.664Z,45.60
2022-08-19T10:37:29.209Z,44.79
2022-08-19T10:38:29.996Z,44.47
2022-08-19T10:39:30.477Z,46.73
2022-08-19T10:40:27.665Z,43.99
2022-08-19T10:41:27.581Z,44.47
2022-08-19T10:42:27.572Z,45.44
2022-08-19T10:43:27.571Z,42.22
2022-08-19T10:44:32.536Z,47.05
2022-08-19T10:45:28.526Z,46.08
2022-08-19T10:46:27.523Z,46.25
2022-08-19T10:47:31.554Z,43.18
2022-08-19T10:48:27.506Z,43.67
2022-08-19T10:49:28.204Z,44.63
2022-08-19T10:50:28.536Z,46.25
2022-08-19T10:51:27.446Z,45.92
2022-08-19T10:52:32.431Z,48.34
2022-08-19T10:53:28.446Z,48.82
2022-08-19T10:54:33.207Z,48.82
2022-08-19T10:55:29.362Z,44.31
2022-08-19T10:56:27.391Z,47.37
2022-08-19T10:57:36.874Z,47.86
2022-08-19T10:58:28.368Z,57.85
2022-08-19T10:59:27.349Z,43.83
2022-08-19T11:00:27.343Z,41.89
2022-08-19T11:01:27.364Z,43.18
2022-08-19T11:02:27.310Z,45.76
2022-08-19T11:03:27.309Z,43.18
2022-08-19T11:04:29.489Z,43.67
2022-08-19T11:05:27.268Z,44.63
2022-08-19T11:06:27.263Z,49.95
2022-08-19T11:07:27.245Z,44.31
2022-08-19T11:08:27.249Z,45.44
2022-08-19T11:09:33.537Z,42.86
2022-08-19T11:10:28.213Z,42.86
2022-08-19T11:11:27.202Z,42.54
2022-08-19T11:12:28.151Z,45.28
2022-08-19T11:13:27.214Z,47.05
2022-08-19T11:14:27.195Z,46.08
2022-08-19T11:15:27.134Z,43.51
2022-08-19T11:16:27.146Z,43.02
2022-08-19T11:17:27.127Z,42.70
2022-08-19T11:18:27.376Z,43.51
2022-08-19T11:19:27.092Z,43.67
2022-08-19T11:20:27.083Z,43.99
2022-08-19T11:21:27.089Z,41.73
2022-08-19T11:22:31.763Z,41.57
2022-08-19T11:23:28.049Z,42.54
2022-08-19T11:24:27.027Z,46.73
2022-08-19T11:25:27.009Z,49.47
2022-08-19T11:26:26.999Z,47.05
2022-08-19T11:27:26.981Z,43.18
2022-08-19T11:28:26.982Z,41.41
2022-08-19T11:29:26.966Z,45.76
2022-08-19T11:30:26.951Z,46.41
2022-08-19T11:31:29.152Z,46.25
2022-08-19T11:32:26.921Z,49.31
2022-08-19T11:33:27.193Z,46.08
2022-08-19T11:34:26.902Z,43.51
2022-08-19T11:35:27.118Z,42.70
2022-08-19T11:36:26.882Z,42.70
2022-08-19T11:37:26.853Z,44.31
2022-08-19T11:38:26.844Z,46.57
2022-08-19T11:39:26.824Z,43.99
2022-08-19T11:40:26.815Z,42.86
2022-08-19T11:41:26.819Z,44.79
2022-08-19T11:42:26.786Z,40.77
2022-08-19T11:43:26.786Z,45.28
2022-08-19T11:44:26.765Z,42.06
2022-08-19T11:45:26.756Z,42.22
2022-08-19T11:46:26.754Z,45.76
2022-08-19T11:47:26.737Z,46.57
2022-08-19T11:48:26.727Z,45.28
2022-08-19T11:49:26.698Z,47.53
2022-08-19T11:50:26.689Z,48.02
2022-08-19T11:51:26.668Z,45.44
2022-08-19T11:52:26.660Z,44.63
2022-08-19T11:53:27.610Z,48.98
2022-08-19T11:54:26.640Z,44.31
2022-08-19T11:55:27.437Z,42.86
2022-08-19T11:56:26.612Z,41.73
2022-08-19T11:57:26.598Z,43.34
2022-08-19T11:58:26.596Z,43.99
2022-08-19T11:59:26.571Z,47.05
2022-08-19T12:00:26.590Z,43.51
2022-08-19T12:01:26.546Z,44.79
2022-08-19T12:02:26.534Z,42.22
2022-08-19T12:03:26.604Z,43.02
2022-08-19T12:04:26.505Z,42.22
2022-08-19T12:05:26.495Z,41.41
2022-08-19T12:06:26.476Z,46.57
2022-08-19T12:07:26.468Z,45.28
2022-08-19T12:08:26.455Z,46.25
2022-08-19T12:09:26.436Z,53.01
2022-08-19T12:10:26.673Z,50.11
2022-08-19T12:11:27.357Z,42.70
2022-08-19T12:12:26.409Z,47.86
2022-08-19T12:13:26.389Z,43.34
2022-08-19T12:14:26.379Z,43.34
2022-08-19T12:15:26.361Z,41.41
2022-08-19T12:16:26.349Z,43.34
2022-08-19T12:17:26.330Z,45.60
2022-08-19T12:18:26.346Z,51.24
2022-08-19T12:19:26.313Z,42.86
2022-08-19T12:20:26.300Z,47.37
2022-08-19T12:21:26.281Z,47.37
2022-08-19T12:22:26.279Z,43.67
2022-08-19T12:23:26.280Z,45.12
2022-08-19T12:24:26.243Z,44.31
2022-08-19T12:25:26.248Z,43.34
2022-08-19T12:26:26.224Z,43.83
2022-08-19T12:27:35.757Z,46.08
2022-08-19T12:28:27.212Z,45.60
2022-08-19T12:29:26.287Z,42.86
2022-08-19T12:30:26.165Z,44.96
2022-08-19T12:31:26.161Z,50.27
2022-08-19T12:32:26.155Z,44.15
2022-08-19T12:33:26.140Z,47.70
2022-08-19T12:34:26.118Z,47.37
2022-08-19T12:35:26.108Z,43.51
2022-08-19T12:36:26.087Z,41.09
2022-08-19T12:37:26.090Z,41.89
2022-08-19T12:38:26.069Z,44.31
2022-08-19T12:39:26.050Z,43.18
2022-08-19T12:40:26.371Z,42.86
2022-08-19T12:41:26.988Z,43.34
2022-08-19T12:42:26.024Z,46.57
2022-08-19T12:43:26.056Z,43.02
2022-08-19T12:44:32.104Z,40.44
2022-08-19T12:45:26.992Z,41.73
2022-08-19T12:46:26.068Z,45.28
2022-08-19T12:47:25.953Z,42.38
2022-08-19T12:48:33.440Z,43.51
2022-08-19T12:49:51.878Z,43.34
2022-08-19T12:50:26.921Z,40.44
2022-08-19T12:51:25.914Z,47.05
2022-08-19T12:52:25.928Z,42.54
2022-08-19T12:53:25.915Z,42.38
2022-08-19T12:54:25.856Z,44.47
2022-08-19T12:55:25.846Z,42.54